Time;durP1;ratioP1;P1;durP2;ratioP2;P2;SDS_P1;SDS_P2;PMS_P1;PMS_P2;Temp;Humidity;BMP_temperature;BMP_pressure;BME280_temperature;BME280_humidity;BME280_pressure;Samples;Min_cycle;Max_cycle;Signal;HPM_P1;HPM_P2
2022/03/23 00:01:39;;;;;;;82.33;53.10;;;6.80;76.60;;;;;;5088606;28;20052;-69
2022/03/23 00:04:05;;;;;;;86.32;54.70;;;6.80;76.80;;;;;;5086737;28;20044;-69
2022/03/23 00:06:32;;;;;;;87.70;55.88;;;6.80;76.80;;;;;;5090483;28;20048;-69
2022/03/23 00:08:57;;;;;;;90.32;55.15;;;6.80;76.70;;;;;;5080140;28;20130;-69
2022/03/23 00:11:24;;;;;;;90.03;54.10;;;6.80;77.10;;;;;;5075061;28;20146;-69
2022/03/23 00:13:50;;;;;;;96.32;55.60;;;6.70;77.10;;;;;;5096983;28;20550;-69
2022/03/23 00:16:16;;;;;;;86.10;55.13;;;6.70;77.10;;;;;;5134503;27;20135;-69
2022/03/23 00:18:41;;;;;;;90.77;56.27;;;6.70;77.30;;;;;;5086881;28;20353;-69
2022/03/23 00:21:07;;;;;;;83.47;54.17;;;6.70;77.20;;;;;;5080370;28;20046;-69
2022/03/23 00:23:33;;;;;;;84.27;52.90;;;6.70;77.20;;;;;;5076895;28;20043;-68
2022/03/23 00:25:59;;;;;;;86.33;55.47;;;6.70;77.30;;;;;;5053010;28;20047;-69
2022/03/23 00:28:26;;;;;;;84.95;52.97;;;6.60;77.20;;;;;;5057979;28;20032;-69
2022/03/23 00:30:52;;;;;;;90.03;54.85;;;6.60;77.30;;;;;;5071276;28;20044;-69
2022/03/23 00:33:21;;;;;;;88.23;54.93;;;6.60;77.50;;;;;;5050709;28;20554;-69
2022/03/23 00:35:48;;;;;;;85.57;53.45;;;6.50;77.40;;;;;;5051165;28;20286;-69
2022/03/23 00:38:15;;;;;;;88.35;56.55;;;6.50;77.70;;;;;;5065646;28;20048;-69
2022/03/23 00:40:43;;;;;;;85.00;53.15;;;6.40;77.60;;;;;;5048374;28;20106;-69
2022/03/23 00:43:09;;;;;;;87.78;53.58;;;6.40;77.90;;;;;;5066235;28;20094;-69
2022/03/23 00:45:35;;;;;;;84.83;54.07;;;6.40;77.90;;;;;;5065760;28;20040;-69
2022/03/23 00:48:02;;;;;;;84.07;53.93;;;6.40;78.10;;;;;;5065719;28;20036;-69
2022/03/23 00:50:27;;;;;;;84.07;51.70;;;6.30;78.00;;;;;;5065552;28;20044;-69
2022/03/23 00:52:53;;;;;;;88.33;53.73;;;6.30;78.00;;;;;;5065349;28;20063;-69
2022/03/23 00:55:19;;;;;;;80.40;50.50;;;6.30;78.10;;;;;;5065471;28;20070;-69
2022/03/23 00:57:45;;;;;;;84.60;54.90;;;6.30;78.20;;;;;;5082778;28;20485;-69
2022/03/23 01:00:17;;;;;;;82.77;52.77;;;6.20;78.00;;;;;;5082648;28;20560;-69
2022/03/23 01:02:44;;;;;;;84.22;53.10;;;6.20;78.10;;;;;;5064984;28;20036;-69
2022/03/23 01:05:11;;;;;;;84.40;54.33;;;6.20;78.20;;;;;;5048545;28;20045;-69
2022/03/23 01:07:38;;;;;;;83.20;53.33;;;6.20;78.20;;;;;;5068304;28;20051;-69
2022/03/23 01:10:05;;;;;;;86.15;55.53;;;6.10;78.30;;;;;;5045243;28;20115;-69
2022/03/23 01:12:31;;;;;;;86.93;55.88;;;6.10;78.60;;;;;;5048981;28;20455;-69
2022/03/23 01:14:58;;;;;;;84.90;52.72;;;6.10;78.40;;;;;;5082111;28;20048;-69
2022/03/23 01:17:24;;;;;;;89.43;56.35;;;6.00;78.60;;;;;;5065200;28;20337;-69
2022/03/23 01:19:50;;;;;;;86.45;56.47;;;6.00;78.50;;;;;;5086281;28;20052;-69
2022/03/23 01:22:16;;;;;;;86.83;55.97;;;6.00;78.70;;;;;;5119133;27;20044;-69
2022/03/23 01:24:43;;;;;;;84.32;53.53;;;5.90;78.70;;;;;;5068119;28;20101;-69
2022/03/23 01:27:09;;;;;;;88.38;56.17;;;5.90;78.90;;;;;;5085731;28;20052;-69
2022/03/23 01:29:36;;;;;;;87.32;56.72;;;5.90;78.70;;;;;;5085008;28;20048;-69
2022/03/23 01:32:02;;;;;;;89.93;57.67;;;5.80;79.10;;;;;;5085081;28;20101;-69
2022/03/23 01:34:28;;;;;;;89.18;56.33;;;5.80;79.00;;;;;;5085094;28;20047;-69
2022/03/23 01:36:53;;;;;;;91.93;56.80;;;5.80;79.00;;;;;;5083271;28;20044;-69
2022/03/23 01:39:19;;;;;;;93.53;58.23;;;5.80;79.00;;;;;;5085747;28;20075;-69
2022/03/23 01:41:45;;;;;;;90.70;56.83;;;5.70;79.00;;;;;;5067817;28;20052;-69
2022/03/23 01:44:13;;;;;;;92.72;57.38;;;5.70;79.00;;;;;;5068300;28;20678;-69
2022/03/23 01:47:14;;;;;;;90.45;56.60;;;5.70;79.20;;;;;;5084977;28;20294;-69
2022/03/23 01:49:45;;;;;;;92.05;57.95;;;5.80;79.10;;;;;;5119041;27;20032;-69
2022/03/23 01:52:13;;;;;;;95.00;58.70;;;5.70;79.20;;;;;;5118719;27;20068;-69
2022/03/23 01:54:41;;;;;;;90.93;57.75;;;5.70;79.10;;;;;;5106375;27;20047;-68
2022/03/23 01:57:08;;;;;;;90.68;57.58;;;5.70;79.20;;;;;;5095500;28;20040;-68
2022/03/23 01:59:36;;;;;;;90.05;58.80;;;5.60;79.10;;;;;;5127464;27;20051;-68
2022/03/23 02:02:03;;;;;;;91.97;58.20;;;5.60;79.40;;;;;;5093004;28;20052;-68
2022/03/23 02:04:29;;;;;;;88.05;56.80;;;5.60;79.40;;;;;;5085336;28;20078;-68
2022/03/23 02:06:55;;;;;;;92.33;58.43;;;5.60;79.30;;;;;;5068761;28;20059;-68
2022/03/23 02:09:20;;;;;;;97.43;60.10;;;5.60;79.30;;;;;;5086440;28;20044;-68
2022/03/23 02:11:49;;;;;;;93.80;57.10;;;5.60;79.30;;;;;;5048980;28;20085;-68
2022/03/23 02:14:15;;;;;;;92.72;57.25;;;5.60;79.40;;;;;;5083607;28;20092;-68
2022/03/23 02:16:46;;;;;;;93.22;56.63;;;5.60;79.40;;;;;;5068286;28;20044;-68
2022/03/23 02:19:12;;;;;;;93.13;57.38;;;5.60;79.50;;;;;;5085365;28;20113;-68
2022/03/23 02:21:46;;;;;;;95.32;55.90;;;5.60;79.50;;;;;;5076462;28;20218;-68
2022/03/23 02:24:13;;;;;;;92.80;56.67;;;5.60;79.50;;;;;;5048043;28;20049;-68
2022/03/23 02:26:40;;;;;;;96.10;58.25;;;5.60;79.50;;;;;;5099174;28;20051;-68
2022/03/23 02:29:07;;;;;;;90.90;56.50;;;5.60;79.70;;;;;;5069195;28;20158;-68
2022/03/23 02:31:34;;;;;;;95.07;55.00;;;5.60;79.80;;;;;;5052870;28;20447;-68
2022/03/23 02:34:00;;;;;;;86.65;54.40;;;5.60;79.70;;;;;;5090568;27;20044;-68
2022/03/23 02:36:26;;;;;;;95.33;58.30;;;5.60;79.70;;;;;;5101880;28;20401;-68
2022/03/23 02:38:52;;;;;;;86.20;53.90;;;5.60;79.70;;;;;;5052655;28;20646;-68
2022/03/23 02:41:18;;;;;;;90.70;55.75;;;5.60;79.90;;;;;;5068349;28;20048;-68
2022/03/23 02:43:44;;;;;;;90.20;54.70;;;5.60;79.80;;;;;;5085600;28;20102;-68
2022/03/23 02:46:18;;;;;;;93.47;56.23;;;5.50;79.80;;;;;;5068516;28;20044;-68
2022/03/23 02:48:45;;;;;;;88.65;54.83;;;5.50;79.90;;;;;;5068390;28;20044;-68
2022/03/23 02:51:11;;;;;;;90.70;54.72;;;5.40;80.00;;;;;;5079424;28;20563;-68
2022/03/23 03:02:39;;;;;;;91.00;52.90;;;5.20;80.20;;;;;;5066190;28;20056;-68
2022/03/23 03:05:07;;;;;;;91.05;54.20;;;5.20;80.40;;;;;;5104414;27;20044;-68
2022/03/23 03:10:19;;;;;;;91.63;55.75;;;5.10;80.50;;;;;;5070144;28;20147;-68
2022/03/23 03:12:46;;;;;;;86.18;54.00;;;5.10;80.40;;;;;;5101237;28;20094;-68
2022/03/23 03:15:13;;;;;;;84.55;52.55;;;5.10;80.40;;;;;;5059179;28;20079;-68
2022/03/23 03:17:39;;;;;;;84.05;51.80;;;5.00;80.50;;;;;;5047533;28;20044;-68
2022/03/23 03:20:05;;;;;;;85.13;54.20;;;5.00;80.70;;;;;;5072954;28;20082;-68
2022/03/23 03:22:35;;;;;;;88.70;52.63;;;5.00;80.80;;;;;;5065199;27;20039;-68
2022/03/23 03:25:01;;;;;;;87.40;53.30;;;5.00;80.70;;;;;;5105159;28;20050;-68
2022/03/23 03:27:30;;;;;;;94.30;55.50;;;5.00;80.70;;;;;;5072539;28;20127;-68
2022/03/23 03:29:56;;;;;;;86.45;53.95;;;4.90;80.90;;;;;;5092635;28;20289;-68
2022/03/23 03:32:22;;;;;;;81.53;51.53;;;4.90;81.00;;;;;;5102111;27;20135;-68
2022/03/23 03:34:47;;;;;;;83.77;51.73;;;4.90;80.90;;;;;;5089887;28;20115;-68
2022/03/23 03:37:13;;;;;;;86.77;53.47;;;4.80;81.00;;;;;;5081252;27;20077;-68
2022/03/23 03:39:39;;;;;;;82.22;51.60;;;4.80;81.10;;;;;;5084280;28;20119;-68
2022/03/23 03:42:05;;;;;;;90.13;53.57;;;4.80;81.00;;;;;;5107356;28;20131;-68
2022/03/23 03:44:31;;;;;;;88.50;54.00;;;4.80;81.10;;;;;;5107995;28;20058;-68
2022/03/23 03:46:56;;;;;;;78.67;49.47;;;4.80;81.10;;;;;;5076315;27;20044;-68
2022/03/23 03:49:22;;;;;;;86.67;53.33;;;4.70;81.10;;;;;;5101895;28;20460;-68
2022/03/23 03:51:48;;;;;;;82.93;51.75;;;4.70;81.20;;;;;;5124081;27;20042;-68
2022/03/23 03:54:14;;;;;;;85.07;50.77;;;4.70;81.30;;;;;;5107923;28;20093;-68
2022/03/23 03:56:40;;;;;;;87.43;52.77;;;4.70;81.30;;;;;;5083235;28;20067;-68
2022/03/23 03:59:06;;;;;;;86.93;52.63;;;4.70;81.30;;;;;;5091533;28;20092;-68
2022/03/23 04:01:31;;;;;;;83.88;52.55;;;4.70;81.40;;;;;;5092509;28;20155;-68
2022/03/23 04:03:57;;;;;;;85.70;50.63;;;4.70;81.40;;;;;;5098498;28;20044;-68
2022/03/23 04:06:23;;;;;;;86.53;52.10;;;4.70;81.40;;;;;;5104640;27;20077;-68
2022/03/23 04:08:48;;;;;;;86.20;51.93;;;4.60;81.30;;;;;;5096434;28;20096;-68
2022/03/23 04:11:14;;;;;;;87.23;51.10;;;4.60;81.50;;;;;;5095193;27;20036;-68
2022/03/23 04:13:40;;;;;;;82.83;50.77;;;4.60;81.40;;;;;;5065845;28;20569;-68
2022/03/23 04:16:05;;;;;;;81.27;50.57;;;4.60;81.50;;;;;;5108001;27;20067;-68
2022/03/23 04:18:31;;;;;;;81.13;49.17;;;4.60;81.50;;;;;;5073246;28;20063;-68
2022/03/23 04:20:57;;;;;;;79.93;51.53;;;4.50;81.60;;;;;;5076183;27;20407;-68
2022/03/23 04:23:23;;;;;;;83.20;49.40;;;4.50;81.60;;;;;;5125003;27;20403;-68
2022/03/23 04:25:49;;;;;;;87.60;52.73;;;4.50;81.50;;;;;;5093055;27;20084;-68
2022/03/23 04:28:14;;;;;;;76.47;48.40;;;4.50;81.50;;;;;;5090672;28;20048;-68
2022/03/23 04:30:41;;;;;;;85.43;51.63;;;4.50;81.60;;;;;;5086574;28;20118;-68
2022/03/23 04:33:08;;;;;;;80.03;50.05;;;4.50;81.60;;;;;;5095344;28;20032;-68
2022/03/23 04:35:34;;;;;;;84.55;50.17;;;4.50;81.70;;;;;;5100219;27;20036;-68
2022/03/23 04:37:59;;;;;;;84.50;47.40;;;4.50;81.80;;;;;;5080600;28;20120;-68
2022/03/23 04:40:25;;;;;;;77.60;49.13;;;4.50;81.70;;;;;;5077769;28;20039;-68
2022/03/23 04:42:51;;;;;;;82.53;49.40;;;4.40;81.70;;;;;;5076842;28;20131;-68
2022/03/23 04:45:18;;;;;;;74.30;46.33;;;4.40;81.60;;;;;;5124025;27;20288;-68
2022/03/23 04:47:44;;;;;;;79.00;47.20;;;4.30;81.60;;;;;;5097818;28;20059;-68
2022/03/23 04:50:12;;;;;;;80.55;48.40;;;4.30;81.70;;;;;;5087908;28;20043;-68
2022/03/23 04:52:40;;;;;;;80.68;48.25;;;4.20;81.70;;;;;;5084695;28;20047;-68
2022/03/23 04:55:07;;;;;;;70.40;45.80;;;4.20;81.80;;;;;;5093054;28;20442;-68
2022/03/23 04:57:32;;;;;;;83.78;47.83;;;4.20;81.80;;;;;;5103342;28;20514;-68
2022/03/23 04:59:58;;;;;;;85.83;49.23;;;4.10;81.90;;;;;;5101072;28;20047;-68
2022/03/23 05:02:26;;;;;;;83.73;50.67;;;4.10;81.80;;;;;;5065812;28;20035;-68
2022/03/23 05:04:52;;;;;;;80.57;49.90;;;4.20;81.90;;;;;;5125552;27;20039;-68
2022/03/23 05:07:17;;;;;;;89.87;49.93;;;4.10;81.90;;;;;;5108462;27;20057;-68
2022/03/23 05:09:43;;;;;;;80.20;49.27;;;4.10;81.90;;;;;;5111242;27;20292;-68
2022/03/23 05:12:09;;;;;;;80.97;49.27;;;4.10;82.00;;;;;;5077540;28;20035;-68
2022/03/23 05:14:36;;;;;;;78.93;49.40;;;4.10;81.90;;;;;;5092362;27;20088;-68
2022/03/23 05:17:02;;;;;;;87.22;50.60;;;4.10;82.00;;;;;;5096966;28;21028;-68
2022/03/23 05:19:28;;;;;;;86.78;51.30;;;4.20;82.00;;;;;;5102770;28;20088;-68
2022/03/23 05:21:54;;;;;;;83.83;50.60;;;4.20;82.00;;;;;;5068951;28;20040;-68
2022/03/23 05:24:20;;;;;;;88.90;50.87;;;4.10;81.90;;;;;;5104050;27;20981;-68
2022/03/23 05:26:45;;;;;;;86.00;52.70;;;4.20;82.00;;;;;;5084109;28;20043;-68
2022/03/23 05:29:11;;;;;;;88.17;51.90;;;4.20;82.10;;;;;;5080375;28;20491;-68
2022/03/23 05:31:37;;;;;;;87.50;51.67;;;4.20;82.10;;;;;;5123293;27;20443;-68
2022/03/23 05:34:04;;;;;;;84.97;50.33;;;4.20;82.10;;;;;;5077134;28;20047;-68
2022/03/23 05:36:30;;;;;;;83.00;48.45;;;4.20;82.10;;;;;;5076733;28;20066;-68
2022/03/23 05:38:57;;;;;;;87.18;50.70;;;4.20;82.10;;;;;;5084279;28;20035;-68
2022/03/23 05:41:24;;;;;;;88.85;51.85;;;4.20;82.00;;;;;;5067191;28;20075;-68
2022/03/23 05:43:49;;;;;;;88.43;53.08;;;4.20;82.10;;;;;;5102913;28;20100;-68
2022/03/23 05:46:15;;;;;;;91.10;53.77;;;4.30;82.10;;;;;;5107107;27;20035;-68
2022/03/23 05:48:41;;;;;;;93.47;52.93;;;4.20;82.10;;;;;;5085753;28;20484;-68
2022/03/23 05:51:07;;;;;;;93.37;53.27;;;4.30;82.10;;;;;;5086432;27;20408;-68
2022/03/23 05:53:33;;;;;;;92.90;53.85;;;4.30;82.20;;;;;;5100099;28;20065;-68
2022/03/23 05:55:58;;;;;;;94.10;53.55;;;4.30;82.30;;;;;;5081917;28;20340;-68
2022/03/23 05:58:24;;;;;;;90.17;54.63;;;4.40;82.10;;;;;;5124430;27;20720;-68
2022/03/23 06:00:50;;;;;;;90.00;53.87;;;4.40;82.30;;;;;;5105610;27;20070;-68
2022/03/23 06:03:15;;;;;;;92.13;55.83;;;4.40;82.40;;;;;;5076363;28;20039;-68
2022/03/23 06:05:41;;;;;;;94.27;55.33;;;4.40;82.30;;;;;;5106501;27;20107;-68
2022/03/23 06:08:07;;;;;;;88.93;53.00;;;4.50;82.40;;;;;;5102069;28;21012;-68
2022/03/23 06:10:33;;;;;;;90.78;53.67;;;4.50;82.30;;;;;;5123764;27;20042;-68
2022/03/23 06:12:59;;;;;;;87.50;52.97;;;4.50;82.40;;;;;;5099294;28;20039;-68
2022/03/23 06:15:25;;;;;;;91.83;55.33;;;4.50;82.40;;;;;;5094111;28;20042;-68
2022/03/23 06:17:50;;;;;;;90.97;54.77;;;4.60;82.40;;;;;;5089507;28;20572;-68
2022/03/23 06:20:16;;;;;;;90.10;52.33;;;4.60;82.50;;;;;;5105891;28;20507;-68
2022/03/23 06:22:42;;;;;;;89.20;53.80;;;4.70;82.50;;;;;;5123117;27;20581;-68
2022/03/23 06:25:08;;;;;;;84.83;51.87;;;4.70;82.50;;;;;;5096460;28;20122;-68
2022/03/23 06:27:34;;;;;;;90.03;52.40;;;4.80;82.50;;;;;;5084931;28;20042;-68
2022/03/23 06:30:01;;;;;;;91.55;54.55;;;4.90;82.60;;;;;;5054705;28;20500;-68
2022/03/23 06:32:27;;;;;;;85.10;52.80;;;4.90;82.60;;;;;;5106422;28;20123;-68
2022/03/23 06:34:52;;;;;;;90.63;53.13;;;5.00;82.50;;;;;;5122372;27;20448;-68
2022/03/23 06:37:18;;;;;;;86.27;53.07;;;5.10;82.50;;;;;;5102507;28;20055;-68
2022/03/23 06:39:44;;;;;;;84.57;53.77;;;5.20;82.50;;;;;;5067213;28;20445;-69
2022/03/23 06:42:09;;;;;;;89.47;52.47;;;5.20;82.40;;;;;;5065856;28;20483;-69
2022/03/23 06:44:38;;;;;;;96.70;57.03;;;5.40;82.40;;;;;;5093049;28;20051;-69
2022/03/23 06:47:04;;;;;;;96.82;57.42;;;5.50;82.30;;;;;;5089294;28;20040;-69
2022/03/23 06:49:30;;;;;;;94.68;58.83;;;5.60;82.20;;;;;;5080797;28;20048;-69
2022/03/23 06:51:56;;;;;;;91.17;56.33;;;5.70;82.10;;;;;;5084001;28;20140;-69
2022/03/23 06:54:21;;;;;;;97.27;60.07;;;5.80;82.00;;;;;;5096489;28;20047;-69
2022/03/23 06:56:51;;;;;;;95.20;57.70;;;5.90;82.00;;;;;;5086785;28;20484;-68
2022/03/23 06:59:18;;;;;;;98.50;58.83;;;6.00;82.00;;;;;;5086713;28;20043;-68
2022/03/23 07:01:43;;;;;;;91.38;58.60;;;6.10;81.90;;;;;;5122036;27;20377;-68
2022/03/23 07:04:09;;;;;;;94.73;56.83;;;6.30;81.80;;;;;;5121717;27;20043;-68
2022/03/23 07:06:34;;;;;;;88.50;56.83;;;6.40;81.80;;;;;;5092208;28;20411;-68
2022/03/23 07:11:44;;;;;;;89.97;56.75;;;6.60;81.60;;;;;;5088256;28;20074;-69
2022/03/23 07:14:11;;;;;;;88.03;56.38;;;6.70;81.40;;;;;;5105386;28;20048;-69
2022/03/23 07:16:37;;;;;;;92.73;56.70;;;6.90;81.20;;;;;;5110931;27;20103;-69
2022/03/23 07:19:04;;;;;;;88.67;55.47;;;7.00;81.10;;;;;;5073437;28;20047;-69
2022/03/23 07:21:30;;;;;;;83.72;53.92;;;7.00;81.00;;;;;;5097136;27;20503;-69
2022/03/23 07:23:56;;;;;;;82.63;53.72;;;7.10;80.90;;;;;;5134086;27;20080;-69
2022/03/23 07:26:22;;;;;;;88.63;55.40;;;7.20;80.80;;;;;;5109825;27;20051;-69
2022/03/23 07:28:49;;;;;;;84.82;53.95;;;7.40;80.70;;;;;;5083115;28;20292;-69
2022/03/23 07:31:15;;;;;;;88.10;54.47;;;7.50;80.40;;;;;;5102454;27;20051;-70
2022/03/23 07:33:41;;;;;;;83.72;54.20;;;7.60;80.30;;;;;;5099394;28;20572;-70
2022/03/23 07:36:06;;;;;;;85.33;52.63;;;7.80;80.10;;;;;;5092598;28;20086;-70
2022/03/23 07:38:33;;;;;;;83.40;52.67;;;7.90;79.90;;;;;;5100222;28;20043;-70
2022/03/23 07:40:59;;;;;;;76.63;51.10;;;8.00;79.70;;;;;;5099919;28;20049;-69
2022/03/23 07:43:24;;;;;;;73.77;48.60;;;8.10;79.50;;;;;;5100173;27;20044;-70
2022/03/23 07:45:50;;;;;;;70.77;47.23;;;8.20;79.20;;;;;;5065511;28;20544;-70
2022/03/23 07:48:16;;;;;;;76.97;49.17;;;8.30;79.00;;;;;;5106419;27;20070;-70
2022/03/23 07:50:42;;;;;;;71.73;46.90;;;8.50;78.70;;;;;;5105601;28;20169;-70
2022/03/23 07:53:08;;;;;;;69.45;45.63;;;8.60;78.40;;;;;;5089151;27;20064;-70
2022/03/23 07:55:34;;;;;;;68.10;43.60;;;8.70;78.20;;;;;;5105917;28;20039;-70
2022/03/23 07:57:59;;;;;;;70.07;45.27;;;8.80;77.90;;;;;;5104698;27;20035;-70
2022/03/23 08:00:25;;;;;;;69.27;43.50;;;8.90;77.70;;;;;;5083969;28;20048;-70
2022/03/23 08:02:51;;;;;;;65.47;44.03;;;9.10;77.50;;;;;;5100317;28;20588;-70
2022/03/23 08:05:17;;;;;;;65.33;42.03;;;9.20;77.10;;;;;;5077799;28;20047;-70
2022/03/23 08:07:43;;;;;;;64.57;43.83;;;9.30;77.00;;;;;;5088295;27;20087;-70
2022/03/23 08:10:09;;;;;;;64.20;43.37;;;9.50;76.80;;;;;;5069647;28;20711;-70
2022/03/23 08:12:35;;;;;;;65.27;42.23;;;9.60;76.40;;;;;;5086777;27;20285;-70
2022/03/23 08:15:01;;;;;;;63.00;42.38;;;9.70;76.30;;;;;;5103387;28;20087;-70
2022/03/23 08:17:27;;;;;;;62.27;43.07;;;9.90;75.70;;;;;;5087645;27;20055;-70
2022/03/23 08:22:37;;;;;;;57.97;38.60;;;10.20;75.30;;;;;;5123921;27;20055;-70
2022/03/23 08:25:03;;;;;;;58.60;39.77;;;10.40;74.60;;;;;;5095173;28;20388;-70
2022/03/23 08:27:29;;;;;;;53.80;36.63;;;10.50;74.10;;;;;;5084273;28;20048;-70
2022/03/23 08:29:55;;;;;;;54.27;36.07;;;10.70;74.10;;;;;;5085472;28;20036;-70
2022/03/23 08:32:26;;;;;;;58.30;36.20;;;10.80;73.60;;;;;;5067257;27;20492;-70
2022/03/23 08:34:51;;;;;;;53.50;36.00;;;11.00;72.90;;;;;;5102055;28;20108;-70
2022/03/23 08:37:17;;;;;;;54.60;36.20;;;11.10;72.70;;;;;;5096049;28;20126;-69
2022/03/23 08:39:43;;;;;;;55.63;35.93;;;11.20;72.20;;;;;;5104644;28;20407;-69
2022/03/23 08:42:09;;;;;;;55.00;36.33;;;11.40;71.30;;;;;;5088132;28;20078;-69
2022/03/23 08:44:34;;;;;;;58.67;36.90;;;11.50;71.20;;;;;;5094127;28;20159;-69
2022/03/23 08:47:00;;;;;;;51.67;36.03;;;11.60;71.30;;;;;;5085997;28;20085;-69
2022/03/23 08:49:26;;;;;;;54.03;37.27;;;11.70;71.10;;;;;;5102852;28;20039;-69
2022/03/23 08:51:52;;;;;;;46.20;33.10;;;11.90;70.50;;;;;;5086560;28;20282;-69
2022/03/23 08:54:17;;;;;;;50.17;33.27;;;12.10;69.80;;;;;;5078583;28;20054;-69
2022/03/23 08:56:43;;;;;;;50.53;33.07;;;12.30;69.30;;;;;;5086141;28;20083;-69
2022/03/23 08:59:09;;;;;;;49.77;33.33;;;12.40;68.30;;;;;;5085754;28;20512;-72
2022/03/23 09:01:35;;;;;;;48.80;33.50;;;12.60;68.10;;;;;;5098920;28;20460;-69
2022/03/23 09:04:04;;;;;;;47.53;32.77;;;12.70;67.60;;;;;;5089130;28;20380;-69
2022/03/23 09:06:29;;;;;;;46.88;31.60;;;12.90;67.30;;;;;;5086197;27;20118;-69
2022/03/23 09:08:55;;;;;;;47.37;32.03;;;13.00;66.50;;;;;;5078444;28;20401;-69
2022/03/23 09:11:22;;;;;;;46.37;32.40;;;13.10;66.30;;;;;;5089626;28;20044;-70
2022/03/23 09:13:48;;;;;;;50.73;33.23;;;13.20;65.40;;;;;;5081190;28;20075;-69
2022/03/23 09:16:15;;;;;;;43.43;32.07;;;13.30;64.70;;;;;;5118903;27;20335;-69
2022/03/23 09:18:41;;;;;;;51.73;32.23;;;13.50;64.30;;;;;;5119725;27;20286;-70
2022/03/23 09:21:07;;;;;;;45.50;31.83;;;13.60;64.50;;;;;;5096898;28;20298;-70
2022/03/23 09:23:36;;;;;;;48.40;33.37;;;13.60;64.30;;;;;;5072185;28;20058;-70
2022/03/23 09:26:03;;;;;;;49.73;33.60;;;13.80;64.50;;;;;;5082348;27;20043;-69
2022/03/23 09:28:29;;;;;;;48.60;32.00;;;13.90;64.50;;;;;;5119734;27;20278;-69
2022/03/23 09:30:55;;;;;;;41.80;30.53;;;14.00;63.30;;;;;;5095031;27;20712;-69
2022/03/23 09:33:20;;;;;;;43.57;31.50;;;14.10;63.20;;;;;;5100201;27;20700;-70
2022/03/23 09:35:46;;;;;;;43.67;29.33;;;14.20;63.10;;;;;;5082329;28;20067;-70
2022/03/23 09:38:13;;;;;;;42.33;29.50;;;14.30;63.20;;;;;;5078970;28;20039;-69
2022/03/23 09:40:40;;;;;;;40.17;27.90;;;14.40;62.50;;;;;;5091767;28;20081;-69
2022/03/23 09:43:08;;;;;;;42.93;29.27;;;14.50;61.90;;;;;;5092773;27;20288;-69
2022/03/23 09:48:03;;;;;;;42.00;27.80;;;14.70;60.30;;;;;;5120086;27;20297;-70
2022/03/23 09:50:30;;;;;;;41.67;28.53;;;14.70;59.80;;;;;;5065797;28;20285;-70
2022/03/23 09:52:57;;;;;;;40.27;28.77;;;14.80;59.60;;;;;;5119030;27;20292;-70
2022/03/23 09:55:23;;;;;;;40.17;28.63;;;14.90;59.50;;;;;;5095336;28;20284;-70
2022/03/23 09:57:52;;;;;;;43.60;29.67;;;15.00;58.80;;;;;;5103694;28;20285;-70
2022/03/23 10:00:18;;;;;;;39.07;28.17;;;15.10;58.00;;;;;;5094997;28;20039;-70
2022/03/23 10:03:11;;;;;;;49.30;29.93;;;15.20;57.90;;;;;;5097709;28;20288;-70
2022/03/23 10:06:11;;;;;;;39.67;29.13;;;15.30;57.30;;;;;;5115654;27;20043;-70
2022/03/23 10:08:59;;;;;;;44.40;29.97;;;15.40;57.90;;;;;;5117277;27;20782;-70
2022/03/23 10:12:02;;;;;;;42.73;29.50;;;15.50;57.40;;;;;;5086959;28;20849;-70
2022/03/23 10:15:06;;;;;;;40.97;27.80;;;15.60;57.00;;;;;;5103263;28;20273;-70
2022/03/23 10:17:53;;;;;;;39.57;27.03;;;15.80;56.40;;;;;;5118360;27;20273;-70
2022/03/23 10:20:19;;;;;;;44.23;27.67;;;15.90;56.40;;;;;;5100542;28;20369;-70
2022/03/23 10:22:50;;;;;;;40.33;27.70;;;16.00;56.40;;;;;;5089699;28;20840;-70
2022/03/23 10:25:17;;;;;;;39.10;27.27;;;16.10;56.40;;;;;;5074831;28;20040;-70
2022/03/23 10:27:44;;;;;;;35.13;24.50;;;16.20;56.30;;;;;;5097423;28;20305;-70
2022/03/23 10:30:12;;;;;;;36.67;25.80;;;16.30;54.10;;;;;;5097887;28;20430;-70
2022/03/23 10:32:42;;;;;;;34.63;24.77;;;16.40;53.70;;;;;;5096323;28;20300;-70
2022/03/23 10:35:16;;;;;;;36.53;25.73;;;16.50;53.20;;;;;;5093145;28;20789;-70
2022/03/23 10:37:43;;;;;;;38.28;24.40;;;16.60;52.50;;;;;;5072968;28;20285;-70
2022/03/23 10:40:17;;;;;;;38.53;25.80;;;16.70;52.00;;;;;;5095545;28;20411;-70
2022/03/23 10:42:44;;;;;;;35.53;24.07;;;16.70;51.80;;;;;;5099373;28;20286;-70
2022/03/23 10:45:31;;;;;;;36.57;23.97;;;16.80;52.30;;;;;;5075216;28;21152;-70
2022/03/23 10:48:08;;;;;;;34.47;23.17;;;17.00;48.30;;;;;;5096209;28;20301;-69
2022/03/23 10:50:34;;;;;;;32.17;23.10;;;17.00;48.80;;;;;;5096809;28;20281;-70
2022/03/23 10:53:05;;;;;;;31.37;21.17;;;17.10;49.70;;;;;;5101059;28;20648;-70
2022/03/23 10:55:36;;;;;;;32.03;21.80;;;17.20;48.40;;;;;;5104308;28;20616;-70
2022/03/23 10:58:02;;;;;;;32.83;22.37;;;17.20;48.40;;;;;;5092848;27;20325;-70
2022/03/23 11:00:38;;;;;;;31.30;22.27;;;17.30;45.90;;;;;;5087379;28;20324;-70
2022/03/23 11:03:07;;;;;;;27.37;19.43;;;17.40;46.80;;;;;;5100982;28;20324;-70
2022/03/23 11:05:37;;;;;;;32.30;20.07;;;17.50;45.20;;;;;;5126448;27;20281;-70
2022/03/23 11:08:15;;;;;;;29.47;19.90;;;17.60;45.20;;;;;;5078705;27;20304;-70
2022/03/23 11:16:46;;;;;;;24.50;17.97;;;17.80;43.60;;;;;;5028899;28;20839;-71
2022/03/23 11:19:12;;;;;;;29.20;18.33;;;17.90;42.70;;;;;;5026955;28;20340;-70
2022/03/23 11:21:57;;;;;;;26.80;17.70;;;17.90;42.50;;;;;;5044190;28;20282;-70
2022/03/23 11:24:23;;;;;;;28.00;19.23;;;18.00;42.00;;;;;;5106476;27;20055;-70
2022/03/23 11:26:50;;;;;;;27.57;20.07;;;18.10;42.60;;;;;;5125994;27;20411;-70
2022/03/23 11:29:17;;;;;;;28.90;19.27;;;18.10;41.60;;;;;;5125420;27;20437;-70
2022/03/23 11:31:45;;;;;;;26.97;19.17;;;18.20;41.90;;;;;;5124717;27;20282;-71
2022/03/23 11:34:13;;;;;;;25.57;18.40;;;18.30;42.40;;;;;;5080239;28;20360;-70
2022/03/23 11:36:40;;;;;;;25.87;18.77;;;18.40;42.50;;;;;;5083568;28;20866;-70
2022/03/23 11:39:06;;;;;;;29.63;18.87;;;18.40;42.30;;;;;;5083839;28;20289;-70
2022/03/23 11:41:35;;;;;;;29.37;20.33;;;18.50;40.90;;;;;;5094607;28;20741;-71
2022/03/23 11:44:01;;;;;;;30.13;20.23;;;18.50;41.20;;;;;;5095161;28;20043;-70
2022/03/23 11:46:27;;;;;;;26.23;19.30;;;18.60;41.30;;;;;;5081474;28;20304;-70
2022/03/23 11:49:20;;;;;;;29.23;19.07;;;18.70;41.20;;;;;;5087325;28;20492;-70
2022/03/23 11:52:10;;;;;;;25.53;18.53;;;18.80;40.70;;;;;;5091222;27;20303;-70
2022/03/23 11:57:54;;;;;;;27.10;18.70;;;19.00;40.80;;;;;;5065874;28;20278;-70
2022/03/23 12:00:25;;;;;;;26.80;19.33;;;19.10;40.30;;;;;;5080108;28;20365;-70
2022/03/23 12:02:51;;;;;;;24.83;18.40;;;19.10;39.60;;;;;;5086195;27;20265;-70
2022/03/23 12:05:31;;;;;;;27.87;20.87;;;19.20;39.70;;;;;;5062342;28;21109;-70
2022/03/23 12:07:58;;;;;;;27.60;20.13;;;19.20;39.60;;;;;;5091886;27;20076;-70
2022/03/23 12:10:30;;;;;;;27.73;19.70;;;19.30;40.50;;;;;;5108212;28;20984;-70
2022/03/23 12:13:15;;;;;;;28.97;20.73;;;19.30;40.20;;;;;;5090994;27;20296;-70
2022/03/23 12:15:59;;;;;;;28.07;20.10;;;19.30;40.20;;;;;;5097109;28;20360;-71
2022/03/23 12:18:57;;;;;;;28.17;19.67;;;19.30;39.70;;;;;;5076773;28;20278;-71
2022/03/23 12:21:29;;;;;;;30.63;20.77;;;19.40;39.90;;;;;;5103778;27;20366;-71
2022/03/23 12:24:07;;;;;;;24.80;19.47;;;19.40;40.10;;;;;;5083331;27;20276;-71
2022/03/23 12:26:39;;;;;;;32.27;20.03;;;19.40;40.20;;;;;;5107309;27;20301;-71
2022/03/23 12:29:26;;;;;;;28.30;20.00;;;19.40;39.50;;;;;;5096881;28;20305;-71
2022/03/23 12:32:03;;;;;;;26.63;20.03;;;19.40;37.20;;;;;;5084520;28;20352;-71
2022/03/23 12:34:30;;;;;;;25.87;19.20;;;19.40;38.60;;;;;;5103471;28;20512;-71
2022/03/23 12:37:07;;;;;;;29.97;18.27;;;19.50;38.60;;;;;;5096308;28;20285;-71
2022/03/23 12:39:33;;;;;;;26.30;19.07;;;19.50;38.50;;;;;;5096535;28;20649;-71
2022/03/23 12:42:17;;;;;;;25.63;17.27;;;19.50;39.10;;;;;;5088961;28;20286;-71
2022/03/23 12:44:46;;;;;;;25.73;13.60;;;19.60;38.40;;;;;;5085469;28;20105;-71
2022/03/23 12:47:16;;;;;;;23.60;14.40;;;19.70;38.70;;;;;;5100677;28;20047;-71
2022/03/23 12:58:11;;;;;;;21.10;11.80;;;20.00;37.80;;;;;;5103208;28;20299;-71
2022/03/23 13:00:45;;;;;;;20.83;11.97;;;19.90;38.30;;;;;;5097871;28;20047;-71
2022/03/23 13:03:31;;;;;;;22.05;12.35;;;20.00;38.80;;;;;;5120221;27;20356;-71
2022/03/23 13:05:59;;;;;;;19.40;11.27;;;20.00;38.40;;;;;;5100268;28;20050;-71
2022/03/23 13:08:30;;;;;;;22.10;11.90;;;20.00;38.60;;;;;;5101383;28;20454;-71
2022/03/23 13:11:00;;;;;;;19.13;12.50;;;20.00;38.70;;;;;;5081001;28;20468;-71
2022/03/23 13:13:32;;;;;;;19.90;11.63;;;20.00;38.60;;;;;;5122102;27;20176;-71
2022/03/23 13:16:08;;;;;;;20.30;13.23;;;19.90;38.00;;;;;;5104247;27;20047;-71